TimeMDT,TemperatureF,Dew PointF,Humidity,Sea Level PressureIn,VisibilityMPH,Wind Direction,Wind SpeedMPH,Gust SpeedMPH,PrecipitationIn,Events,Conditions,WindDirDegrees,DateUTC
12:52 AM,42.1,36.0,79,29.99,10.0,Calm,Calm,-,0.00,Rain,Light Rain,0,2011-10-17 06:52:00
1:52 AM,42.1,39.0,89,30.00,10.0,North,-9999.0,-,0.00,,Overcast,0,2011-10-17 07:52:00
2:52 AM,42.1,37.9,85,30.00,10.0,North,6.9,-,0.00,Rain,Light Rain,360,2011-10-17 08:52:00
3:52 AM,41.0,37.4,87,29.98,10.0,North,11.5,-,N/A,,Overcast,10,2011-10-17 09:52:00
4:52 AM,39.9,37.0,89,30.02,10.0,North,9.2,-,N/A,,Overcast,360,2011-10-17 10:52:00
5:52 AM,39.2,37.4,93,30.03,10.0,North,10.4,-,N/A,Rain,Light Rain,360,2011-10-17 11:52:00
6:08 AM,39.2,37.4,93,30.04,7.0,North,15.0,-,0.00,Rain,Light Rain,350,2011-10-17 12:08:00
6:40 AM,39.2,37.4,93,30.05,10.0,NNW,11.5,-,0.02,,Overcast,340,2011-10-17 12:40:00
6:52 AM,39.0,37.0,93,30.10,10.0,NNW,12.7,-,0.02,,Overcast,340,2011-10-17 12:52:00
7:52 AM,39.0,34.0,82,30.14,10.0,NNW,15.0,-,0.00,,Overcast,330,2011-10-17 13:52:00
8:52 AM,39.0,33.1,79,30.20,10.0,NNW,6.9,-,0.00,Rain,Light Rain,340,2011-10-17 14:52:00
9:52 AM,42.1,34.0,73,30.22,10.0,NW,11.5,-,0.00,,Overcast,320,2011-10-17 15:52:00
10:52 AM,45.0,35.1,68,30.22,10.0,NNW,16.1,-,N/A,,Mostly Cloudy,330,2011-10-17 16:52:00
11:52 AM,46.9,34.0,61,30.23,10.0,NNW,23.0,27.6,N/A,,Partly Cloudy,330,2011-10-17 17:52:00
12:52 PM,48.9,30.9,50,30.21,10.0,NW,21.9,28.8,N/A,,Clear,320,2011-10-17 18:52:00
1:52 PM,52.0,32.0,47,30.18,10.0,NNW,17.3,26.5,N/A,,Mostly Cloudy,330,2011-10-17 19:52:00
2:52 PM,54.0,30.0,40,30.17,10.0,NW,21.9,27.6,N/A,,Mostly Cloudy,310,2011-10-17 20:52:00
3:52 PM,53.1,28.0,38,30.17,10.0,NNW,17.3,27.6,N/A,,Clear,330,2011-10-17 21:52:00
4:52 PM,52.0,28.0,40,30.18,10.0,NW,15.0,23.0,N/A,,Clear,320,2011-10-17 22:52:00
5:52 PM,48.2,26.6,43,30.16,10.0,NNW,13.8,-,N/A,,Clear,330,2011-10-17 23:52:00
6:52 PM,44.6,28.4,53,30.18,10.0,NNW,12.7,-,N/A,,Clear,340,2011-10-18 00:52:00
7:52 PM,39.0,28.0,65,30.25,10.0,NW,10.4,-,N/A,,Clear,320,2011-10-18 01:52:00
8:52 PM,39.9,28.0,63,30.25,10.0,NW,11.5,-,N/A,,Clear,320,2011-10-18 02:52:00
9:52 PM,42.1,28.9,60,30.25,10.0,NW,11.5,-,N/A,,Clear,320,2011-10-18 03:52:00
10:52 PM,45.0,28.0,52,30.24,10.0,NNW,17.3,-,N/A,,Clear,330,2011-10-18 04:52:00
11:52 PM,45.0,27.0,49,30.24,10.0,NNW,18.4,-,N/A,,Partly Cloudy,330,2011-10-18 05:52:00